createdAt,value
2019-05-22T00:02:19.283Z,12.40
2019-05-22T00:04:58.100Z,12.50
2019-05-22T00:07:28.682Z,12.40
2019-05-22T00:09:58.838Z,12.40
2019-05-22T00:12:45.751Z,12.40
2019-05-22T00:15:04.216Z,12.40
2019-05-22T00:17:35.919Z,12.50
2019-05-22T00:20:06.505Z,12.50
2019-05-22T00:22:38.163Z,12.50
2019-05-22T00:25:10.506Z,12.50
2019-05-22T00:27:40.771Z,12.50
2019-05-22T00:30:14.289Z,12.60
2019-05-22T00:32:47.353Z,12.50
2019-05-22T00:35:19.055Z,12.60
2019-05-22T00:37:49.623Z,12.60
2019-05-22T00:40:20.679Z,12.60
2019-05-22T00:43:03.433Z,12.60
2019-05-22T00:45:25.257Z,12.50
2019-05-22T00:47:54.797Z,12.50
2019-05-22T00:50:30.207Z,12.50
2019-05-22T00:53:02.743Z,12.60
2019-05-22T00:55:34.868Z,12.50
2019-05-22T00:58:07.812Z,12.50
2019-05-22T01:00:49.311Z,12.50
2019-05-22T01:03:22.458Z,12.50
2019-05-22T01:05:52.087Z,12.50
2019-05-22T01:08:24.807Z,12.50
2019-05-22T01:10:56.132Z,12.50
2019-05-22T01:13:30.486Z,12.50
2019-05-22T01:16:01.872Z,12.60
2019-05-22T01:18:52.591Z,12.50
2019-05-22T01:21:24.537Z,12.50
2019-05-22T01:23:55.715Z,12.50
2019-05-22T01:26:26.094Z,12.50
2019-05-22T01:28:55.994Z,12.50
2019-05-22T01:31:33.037Z,12.50
2019-05-22T01:34:06.246Z,12.50
2019-05-22T01:36:39.371Z,12.50
2019-05-22T01:39:14.609Z,12.40
2019-05-22T01:41:48.228Z,12.50
2019-05-22T01:44:19.089Z,12.50
2019-05-22T01:46:50.488Z,12.50
2019-05-22T01:49:21.986Z,12.50
2019-05-22T01:51:55.152Z,12.50
2019-05-22T01:54:25.901Z,12.50
2019-05-22T01:56:57.327Z,12.50
2019-05-22T01:59:27.841Z,12.40
2019-05-22T02:01:57.877Z,12.50
2019-05-22T02:04:29.282Z,12.50
2019-05-22T02:06:58.721Z,12.50
2019-05-22T02:09:37.514Z,12.50
2019-05-22T02:12:20.273Z,12.50
2019-05-22T02:14:51.937Z,12.60
2019-05-22T02:17:25.756Z,12.60
2019-05-22T02:19:55.357Z,12.60
2019-05-22T02:22:26.411Z,12.60
2019-05-22T02:24:56.632Z,12.60
2019-05-22T02:27:26.370Z,12.60
2019-05-22T02:29:55.877Z,12.60
2019-05-22T02:32:26.155Z,12.60
2019-05-22T02:34:56.886Z,12.60
2019-05-22T02:37:28.625Z,12.50
2019-05-22T02:39:58.500Z,12.50
2019-05-22T02:42:30.877Z,12.50
2019-05-22T02:45:01.829Z,12.40
2019-05-22T02:47:31.786Z,12.40
2019-05-22T02:50:01.828Z,12.50
2019-05-22T02:52:31.664Z,12.60
2019-05-22T02:55:02.097Z,12.60
2019-05-22T02:57:32.933Z,12.60
2019-05-22T03:00:03.045Z,12.60
2019-05-22T03:02:35.016Z,12.60
2019-05-22T03:05:09.952Z,12.50
2019-05-22T03:07:42.022Z,12.50
2019-05-22T03:10:15.511Z,12.40
2019-05-22T03:12:45.562Z,12.50
2019-05-22T03:15:18.050Z,12.50
2019-05-22T03:17:47.941Z,12.50
2019-05-22T03:20:19.794Z,12.50
2019-05-22T03:22:55.449Z,12.40
2019-05-22T03:25:27.153Z,12.40
2019-05-22T03:27:57.625Z,12.40
2019-05-22T03:30:33.866Z,12.40
2019-05-22T03:33:05.884Z,12.40
2019-05-22T03:35:47.150Z,12.40
2019-05-22T03:38:18.185Z,12.30
2019-05-22T03:40:50.917Z,12.40
2019-05-22T03:43:25.055Z,12.30
2019-05-22T03:45:57.811Z,12.30
2019-05-22T03:48:31.965Z,12.30
2019-05-22T03:51:13.470Z,12.20
2019-05-22T03:53:44.082Z,12.30
2019-05-22T03:56:16.134Z,12.30
2019-05-22T03:58:48.316Z,12.30
2019-05-22T04:01:19.485Z,12.30
2019-05-22T04:03:50.357Z,12.30
2019-05-22T04:06:20.921Z,12.30
2019-05-22T04:08:51.780Z,12.20
2019-05-22T04:11:21.913Z,12.20
2019-05-22T04:13:51.500Z,12.20
2019-05-22T04:16:28.611Z,12.20
2019-05-22T04:19:02.579Z,12.10
2019-05-22T04:21:32.364Z,12.00
2019-05-22T04:24:02.872Z,12.00
2019-05-22T04:26:34.338Z,12.00
2019-05-22T04:29:04.487Z,12.00
2019-05-22T04:32:00.621Z,12.10
2019-05-22T04:34:30.615Z,12.00
2019-05-22T04:37:01.138Z,11.90
2019-05-22T04:39:33.081Z,11.80
2019-05-22T04:42:04.185Z,11.80
2019-05-22T04:44:33.769Z,11.80
2019-05-22T04:47:04.639Z,11.90
2019-05-22T04:49:34.746Z,11.90
2019-05-22T04:52:05.864Z,11.90
2019-05-22T04:54:35.635Z,12.00
2019-05-22T04:57:06.787Z,12.00
2019-05-22T04:59:37.603Z,12.00
2019-05-22T05:02:07.675Z,11.90
2019-05-22T05:04:37.598Z,11.90
2019-05-22T05:07:08.658Z,11.90
2019-05-22T05:09:38.354Z,12.00
2019-05-22T05:12:08.814Z,12.00
2019-05-22T05:14:41.614Z,12.00
2019-05-22T05:17:11.524Z,12.00
2019-05-22T05:19:41.027Z,12.00
2019-05-22T05:22:13.734Z,12.10
2019-05-22T05:24:44.237Z,12.10
2019-05-22T05:27:13.966Z,12.10
2019-05-22T05:29:43.519Z,12.10
2019-05-22T05:32:13.440Z,12.20
2019-05-22T05:34:47.247Z,12.20
2019-05-22T05:37:18.787Z,12.20
2019-05-22T05:39:54.552Z,12.20
2019-05-22T05:42:24.272Z,12.20
2019-05-22T05:44:53.713Z,12.20
2019-05-22T05:47:23.848Z,12.20
2019-05-22T05:49:53.286Z,12.10
2019-05-22T05:52:24.100Z,12.20
2019-05-22T05:54:54.458Z,12.20
2019-05-22T05:57:38.986Z,12.30
2019-05-22T06:00:35.665Z,12.10
2019-05-22T06:03:12.109Z,12.10
2019-05-22T06:05:41.822Z,12.00
2019-05-22T06:08:11.468Z,11.90
2019-05-22T06:10:47.460Z,11.90
2019-05-22T06:13:17.588Z,11.80
2019-05-22T06:15:56.214Z,11.80
2019-05-22T06:18:34.683Z,11.90
2019-05-22T06:21:06.233Z,11.90
2019-05-22T06:23:42.252Z,11.90
2019-05-22T06:26:18.638Z,11.90
2019-05-22T06:28:49.588Z,12.00
2019-05-22T06:31:40.420Z,12.00
2019-05-22T06:34:10.689Z,12.10
2019-05-22T06:36:42.256Z,12.00
2019-05-22T06:39:13.818Z,12.00
2019-05-22T06:41:43.997Z,12.00
2019-05-22T06:44:34.141Z,12.00
2019-05-22T06:47:05.799Z,12.10
2019-05-22T06:49:38.758Z,12.20
2019-05-22T06:52:08.854Z,12.20
2019-05-22T06:54:39.000Z,12.20
2019-05-22T06:57:11.754Z,12.20
2019-05-22T06:59:41.929Z,12.10
2019-05-22T07:02:13.925Z,12.10
2019-05-22T07:04:44.265Z,12.20
2019-05-22T07:07:14.251Z,12.10
2019-05-22T07:09:44.849Z,12.20
2019-05-22T07:12:16.274Z,12.20
2019-05-22T07:15:02.286Z,12.20
2019-05-22T07:17:31.966Z,12.20
2019-05-22T07:20:03.454Z,12.10
2019-05-22T07:22:32.968Z,12.10
2019-05-22T07:25:04.014Z,12.10
2019-05-22T07:27:34.674Z,12.10
2019-05-22T07:30:07.844Z,12.20
2019-05-22T07:32:38.101Z,12.20
2019-05-22T07:35:08.472Z,12.20
2019-05-22T07:37:42.670Z,12.30
2019-05-22T07:40:14.122Z,12.40
2019-05-22T07:42:43.939Z,12.40
2019-05-22T07:45:15.614Z,12.50
2019-05-22T07:47:45.325Z,12.50
2019-05-22T07:50:15.820Z,12.50
2019-05-22T07:52:45.632Z,12.60
2019-05-22T07:55:17.016Z,12.50
2019-05-22T07:57:52.500Z,12.60
2019-05-22T08:00:22.333Z,12.70
2019-05-22T08:02:52.034Z,12.70
2019-05-22T08:05:23.071Z,12.80
2019-05-22T08:07:54.515Z,12.80
2019-05-22T08:10:24.621Z,13.00
2019-05-22T08:12:54.062Z,12.90
2019-05-22T08:15:24.435Z,13.00
2019-05-22T08:17:54.188Z,13.00
2019-05-22T08:20:23.852Z,12.90
2019-05-22T08:22:55.414Z,12.90
2019-05-22T08:25:26.994Z,13.00
2019-05-22T08:27:56.981Z,13.20
2019-05-22T08:30:26.940Z,13.30
2019-05-22T08:32:59.810Z,13.50
2019-05-22T08:35:30.646Z,13.60
2019-05-22T08:38:00.530Z,13.60
2019-05-22T08:40:30.755Z,13.60
2019-05-22T08:43:00.895Z,13.50
2019-05-22T08:45:33.325Z,13.40
2019-05-22T08:48:03.208Z,13.40
2019-05-22T08:50:34.840Z,13.50
2019-05-22T08:53:05.051Z,13.50
2019-05-22T08:55:35.730Z,13.50
2019-05-22T08:58:05.847Z,13.60
2019-05-22T09:00:37.073Z,13.70
2019-05-22T09:03:06.615Z,13.70
2019-05-22T09:05:36.486Z,13.80
2019-05-22T09:08:07.092Z,13.80
2019-05-22T09:10:37.233Z,13.80
2019-05-22T09:13:06.633Z,13.90
2019-05-22T09:15:38.565Z,13.80
2019-05-22T09:18:08.841Z,13.70
2019-05-22T09:20:48.653Z,13.80
2019-05-22T09:23:11.627Z,13.80
2019-05-22T09:25:41.990Z,13.80
2019-05-22T09:28:12.314Z,13.80
2019-05-22T09:30:42.810Z,13.90
2019-05-22T09:33:13.432Z,13.90
2019-05-22T09:35:43.440Z,14.00
2019-05-22T09:38:13.803Z,14.00
2019-05-22T09:40:43.372Z,14.00
2019-05-22T09:43:13.476Z,14.00
2019-05-22T09:45:42.927Z,14.10
2019-05-22T09:48:12.655Z,14.20
2019-05-22T09:50:42.338Z,14.30
2019-05-22T09:53:12.263Z,14.50
2019-05-22T09:55:46.923Z,14.60
2019-05-22T09:58:14.056Z,14.70
2019-05-22T10:00:43.931Z,14.70
2019-05-22T10:03:14.713Z,14.50
2019-05-22T10:05:44.776Z,14.60
2019-05-22T10:08:15.207Z,14.70
2019-05-22T10:10:45.186Z,14.70
2019-05-22T10:13:14.708Z,14.70
2019-05-22T10:15:45.805Z,14.60
2019-05-22T10:18:15.331Z,14.70
2019-05-22T10:20:46.001Z,14.70
2019-05-22T10:23:16.581Z,14.70
2019-05-22T10:25:48.877Z,14.80
2019-05-22T10:28:18.386Z,14.60
2019-05-22T10:30:48.109Z,14.70
2019-05-22T10:33:18.187Z,14.70
2019-05-22T10:35:49.994Z,14.60
2019-05-22T10:38:20.260Z,14.60
2019-05-22T10:40:49.873Z,14.40
2019-05-22T10:43:19.468Z,14.40
2019-05-22T10:45:48.986Z,14.60
2019-05-22T10:48:18.490Z,14.80
2019-05-22T10:50:48.374Z,15.10
2019-05-22T10:53:32.449Z,15.20
2019-05-22T10:55:50.333Z,15.30
2019-05-22T10:58:20.027Z,15.20
2019-05-22T11:00:49.479Z,15.00
2019-05-22T11:03:19.393Z,15.00
2019-05-22T11:06:05.842Z,15.00
2019-05-22T11:08:20.631Z,15.10
2019-05-22T11:10:50.416Z,15.10
2019-05-22T11:13:20.843Z,15.10
2019-05-22T11:15:51.619Z,15.00
2019-05-22T11:18:21.409Z,14.80
2019-05-22T11:20:51.115Z,14.80
2019-05-22T11:23:20.602Z,15.00
2019-05-22T11:25:50.530Z,15.10
2019-05-22T11:28:20.054Z,15.10
2019-05-22T11:30:50.013Z,15.10
2019-05-22T11:33:19.886Z,15.10
2019-05-22T11:35:49.839Z,15.00
2019-05-22T11:38:19.459Z,14.90
2019-05-22T11:40:49.365Z,14.90
2019-05-22T11:43:20.322Z,14.80
2019-05-22T11:45:49.972Z,14.80
2019-05-22T11:48:20.091Z,14.80
2019-05-22T11:50:50.082Z,14.70
2019-05-22T11:53:19.531Z,15.00
2019-05-22T11:55:50.245Z,15.20
2019-05-22T11:58:20.257Z,15.30
2019-05-22T12:00:49.956Z,15.30
2019-05-22T12:03:20.497Z,15.30
2019-05-22T12:05:50.583Z,15.30
2019-05-22T12:08:21.189Z,15.70
2019-05-22T12:10:51.975Z,15.80
2019-05-22T12:13:22.378Z,15.50
2019-05-22T12:15:53.143Z,15.30
2019-05-22T12:18:23.344Z,15.30
2019-05-22T12:20:53.132Z,15.30
2019-05-22T12:23:22.718Z,15.20
2019-05-22T12:25:53.355Z,15.20
2019-05-22T12:28:23.698Z,15.20
2019-05-22T12:30:53.315Z,15.30
2019-05-22T12:33:23.488Z,15.30
2019-05-22T12:35:52.963Z,15.40
2019-05-22T12:38:26.549Z,15.50
2019-05-22T12:40:54.425Z,15.80
2019-05-22T12:43:24.233Z,16.00
2019-05-22T12:45:53.924Z,16.00
2019-05-22T12:48:24.163Z,15.90
2019-05-22T12:50:54.463Z,15.60
2019-05-22T12:53:24.639Z,15.50
2019-05-22T12:55:54.408Z,15.70
2019-05-22T12:58:23.923Z,15.80
2019-05-22T13:00:54.545Z,15.70
2019-05-22T13:03:24.991Z,15.90
2019-05-22T13:05:55.181Z,15.90
2019-05-22T13:08:26.055Z,16.00
2019-05-22T13:10:55.514Z,15.70
2019-05-22T13:13:25.027Z,15.80
2019-05-22T13:15:55.493Z,15.90
2019-05-22T13:18:25.175Z,15.90
2019-05-22T13:20:54.981Z,15.90
2019-05-22T13:23:28.851Z,16.10
2019-05-22T13:25:58.939Z,16.20
2019-05-22T13:28:30.425Z,16.50
2019-05-22T13:31:00.748Z,16.50
2019-05-22T13:33:31.864Z,16.50
2019-05-22T13:36:02.939Z,16.40
2019-05-22T13:38:33.611Z,16.30
2019-05-22T13:41:04.404Z,16.30
2019-05-22T13:43:35.132Z,16.10
2019-05-22T13:46:06.196Z,16.20
2019-05-22T13:48:35.987Z,16.20
2019-05-22T13:51:06.015Z,16.30
2019-05-22T13:53:35.673Z,16.40
2019-05-22T13:56:06.300Z,16.50
2019-05-22T13:58:36.665Z,16.60
2019-05-22T14:01:07.408Z,16.60
2019-05-22T14:03:37.243Z,16.80
2019-05-22T14:06:07.081Z,16.70
2019-05-22T14:08:36.682Z,16.80
2019-05-22T14:11:06.960Z,17.00
2019-05-22T14:13:36.885Z,17.20
2019-05-22T14:16:06.491Z,17.30
2019-05-22T14:18:36.564Z,17.40
2019-05-22T14:21:06.748Z,17.60
2019-05-22T14:23:36.367Z,17.50
2019-05-22T14:26:05.907Z,17.40
2019-05-22T14:28:36.953Z,17.60
2019-05-22T14:31:06.455Z,17.50
2019-05-22T14:33:40.357Z,17.10
2019-05-22T14:36:09.256Z,16.70
2019-05-22T14:38:39.615Z,16.30
2019-05-22T14:41:10.388Z,16.30
2019-05-22T14:43:40.240Z,16.60
2019-05-22T14:46:09.695Z,16.80
2019-05-22T14:48:41.752Z,16.90
2019-05-22T14:51:11.282Z,16.80
2019-05-22T14:53:41.891Z,16.50
2019-05-22T14:56:11.663Z,16.20
2019-05-22T14:58:43.821Z,16.00
2019-05-22T15:01:13.624Z,15.70
2019-05-22T15:03:43.700Z,15.60
2019-05-22T15:06:14.286Z,15.80
2019-05-22T15:08:43.988Z,15.80
2019-05-22T15:11:16.810Z,16.00
2019-05-22T15:13:46.807Z,16.30
2019-05-22T15:16:17.074Z,16.30
2019-05-22T15:18:46.600Z,16.00
2019-05-22T15:21:17.279Z,15.80
2019-05-22T15:23:47.828Z,15.60
2019-05-22T15:26:17.423Z,15.50
2019-05-22T15:28:47.045Z,15.40
2019-05-22T15:31:17.207Z,15.40
2019-05-22T15:33:47.633Z,15.40
2019-05-22T15:36:19.051Z,15.30
2019-05-22T15:38:49.865Z,15.30
2019-05-22T15:41:19.324Z,15.10
2019-05-22T15:43:53.166Z,15.30
2019-05-22T15:46:22.188Z,15.40
2019-05-22T15:48:53.578Z,15.40
2019-05-22T15:51:27.122Z,15.40
2019-05-22T15:54:00.460Z,15.60
2019-05-22T15:56:33.918Z,15.80
2019-05-22T15:59:07.354Z,15.90
2019-05-22T16:01:37.447Z,15.90
2019-05-22T16:04:10.098Z,15.90
2019-05-22T16:06:40.378Z,15.80
2019-05-22T16:09:14.058Z,15.70
2019-05-22T16:11:45.392Z,15.60
2019-05-22T16:14:15.615Z,15.50
2019-05-22T16:16:48.243Z,15.40
2019-05-22T16:19:19.359Z,15.30
2019-05-22T16:21:51.119Z,15.40
2019-05-22T16:24:20.786Z,15.30
2019-05-22T16:26:51.152Z,15.10
2019-05-22T16:29:23.673Z,15.00
2019-05-22T16:31:54.064Z,14.80
2019-05-22T16:34:23.806Z,14.80
2019-05-22T16:36:54.294Z,15.00
2019-05-22T16:39:26.158Z,15.00
2019-05-22T16:41:56.445Z,15.10
2019-05-22T16:44:27.133Z,15.20
2019-05-22T16:46:58.784Z,15.40
2019-05-22T16:49:28.682Z,15.60
2019-05-22T16:51:59.854Z,15.70
2019-05-22T16:54:32.032Z,15.70
2019-05-22T16:57:02.000Z,15.60
2019-05-22T16:59:36.701Z,15.50
2019-05-22T17:02:10.013Z,15.50
2019-05-22T17:04:39.415Z,15.50
2019-05-22T17:07:09.652Z,15.40
2019-05-22T17:09:43.292Z,15.30
2019-05-22T17:12:13.823Z,15.30
2019-05-22T17:14:44.657Z,15.40
2019-05-22T17:17:17.165Z,15.60
2019-05-22T17:19:46.828Z,15.60
2019-05-22T17:22:17.532Z,15.50
2019-05-22T17:24:48.329Z,15.40
2019-05-22T17:27:19.239Z,15.10
2019-05-22T17:29:50.852Z,15.00
2019-05-22T17:32:21.894Z,14.90
2019-05-22T17:34:51.744Z,14.80
2019-05-22T17:37:25.199Z,14.80
2019-05-22T17:39:56.196Z,14.70
2019-05-22T17:42:27.348Z,14.60
2019-05-22T17:44:57.572Z,14.60
2019-05-22T17:47:27.955Z,14.40
2019-05-22T17:50:00.815Z,14.50
2019-05-22T17:52:32.431Z,14.50
2019-05-22T17:55:02.491Z,14.30
2019-05-22T17:57:33.411Z,14.20
2019-05-22T18:00:05.210Z,14.00
2019-05-22T18:02:36.475Z,14.10
2019-05-22T18:05:08.564Z,14.00
2019-05-22T18:07:39.634Z,14.00
2019-05-22T18:10:11.754Z,13.90
2019-05-22T18:12:42.020Z,13.80
2019-05-22T18:15:15.883Z,13.70
2019-05-22T18:17:45.479Z,13.70
2019-05-22T18:20:15.955Z,13.60
2019-05-22T18:23:07.162Z,13.50
2019-05-22T18:25:45.285Z,13.50
2019-05-22T18:28:15.743Z,13.60
2019-05-22T18:30:47.170Z,13.50
2019-05-22T18:33:16.754Z,13.60
2019-05-22T18:35:46.729Z,13.60
2019-05-22T18:38:16.226Z,13.50
2019-05-22T18:40:47.305Z,13.50
2019-05-22T18:43:18.935Z,13.50
2019-05-22T18:45:48.672Z,13.50
2019-05-22T18:48:18.365Z,13.40
2019-05-22T18:50:48.258Z,13.30
2019-05-22T18:53:17.805Z,13.20
2019-05-22T18:55:47.370Z,13.10
2019-05-22T18:58:16.993Z,13.10
2019-05-22T19:00:47.646Z,13.00
2019-05-22T19:03:17.186Z,12.90
2019-05-22T19:05:46.721Z,12.80
2019-05-22T19:08:16.278Z,12.80
2019-05-22T19:11:05.499Z,12.80
2019-05-22T19:13:53.046Z,12.70
2019-05-22T19:16:25.976Z,12.60
2019-05-22T19:18:56.395Z,12.50
2019-05-22T19:21:25.898Z,12.40
2019-05-22T19:23:55.473Z,12.20
2019-05-22T19:26:25.221Z,12.10
2019-05-22T19:28:54.685Z,12.00
2019-05-22T19:31:24.638Z,11.90
2019-05-22T19:33:54.264Z,11.70
2019-05-22T19:36:23.769Z,11.60
2019-05-22T19:38:54.474Z,11.50
2019-05-22T19:41:24.566Z,11.40
2019-05-22T19:43:54.187Z,11.30
2019-05-22T19:46:23.890Z,11.20
2019-05-22T19:48:53.622Z,11.20
2019-05-22T19:51:23.518Z,11.10
2019-05-22T19:53:53.190Z,11.00
2019-05-22T19:56:24.110Z,10.90
2019-05-22T19:58:53.723Z,10.80
2019-05-22T20:01:24.566Z,10.70
2019-05-22T20:03:54.255Z,10.60
2019-05-22T20:06:24.312Z,10.50
2019-05-22T20:08:54.711Z,10.40
2019-05-22T20:11:24.557Z,10.40
2019-05-22T20:13:55.425Z,10.30
2019-05-22T20:16:25.020Z,10.40
2019-05-22T20:18:54.463Z,10.30
2019-05-22T20:21:24.823Z,10.30
2019-05-22T20:23:54.388Z,10.30
2019-05-22T20:26:24.053Z,10.20
2019-05-22T20:28:54.812Z,10.20
2019-05-22T20:31:24.586Z,10.10
2019-05-22T20:33:54.417Z,10.10
2019-05-22T20:36:24.544Z,10.10
2019-05-22T20:38:54.160Z,10.00
2019-05-22T20:41:23.941Z,9.90
2019-05-22T20:43:53.967Z,9.90
2019-05-22T20:46:26.633Z,9.80
2019-05-22T20:48:56.706Z,9.70
2019-05-22T20:51:26.993Z,9.70
2019-05-22T20:53:57.648Z,9.60
2019-05-22T20:56:29.606Z,9.60
2019-05-22T20:58:59.806Z,9.50
2019-05-22T21:01:30.202Z,9.50
2019-05-22T21:04:03.952Z,9.40
2019-05-22T21:06:36.481Z,9.40
2019-05-22T21:09:06.753Z,9.30
2019-05-22T21:11:36.352Z,9.30
2019-05-22T21:14:06.300Z,9.20
2019-05-22T21:16:35.980Z,9.20
2019-05-22T21:19:07.685Z,9.20
2019-05-22T21:21:37.199Z,9.10
2019-05-22T21:24:11.562Z,9.10
2019-05-22T21:26:39.162Z,9.00
2019-05-22T21:29:09.988Z,8.90
2019-05-22T21:31:39.886Z,8.90
2019-05-22T21:34:09.566Z,8.80
2019-05-22T21:36:39.537Z,8.80
2019-05-22T21:39:12.200Z,8.70
2019-05-22T21:41:42.154Z,8.70
2019-05-22T21:44:12.287Z,8.60
2019-05-22T21:46:42.473Z,8.60
2019-05-22T21:49:12.256Z,8.60
2019-05-22T21:51:41.762Z,8.50
2019-05-22T21:54:13.199Z,8.40
2019-05-22T21:56:43.600Z,8.40
2019-05-22T21:59:13.974Z,8.40
2019-05-22T22:01:48.140Z,8.40
2019-05-22T22:04:23.952Z,8.40
2019-05-22T22:06:55.436Z,8.40
2019-05-22T22:09:26.332Z,8.30
2019-05-22T22:11:56.255Z,8.30
2019-05-22T22:14:25.950Z,8.30
2019-05-22T22:16:55.528Z,8.30
2019-05-22T22:19:25.547Z,8.20
2019-05-22T22:21:55.232Z,8.20
2019-05-22T22:24:24.675Z,8.20
2019-05-22T22:26:55.460Z,8.20
2019-05-22T22:29:25.337Z,8.20
2019-05-22T22:31:57.024Z,8.20
2019-05-22T22:34:31.193Z,8.10
2019-05-22T22:37:01.219Z,8.10
2019-05-22T22:39:32.619Z,8.10
2019-05-22T22:42:03.504Z,8.10
2019-05-22T22:44:33.392Z,8.10
2019-05-22T22:47:07.104Z,8.10
2019-05-22T22:49:37.870Z,8.10
2019-05-22T22:52:08.950Z,8.10
2019-05-22T22:54:38.640Z,8.00
2019-05-22T22:57:09.148Z,8.10
2019-05-22T22:59:38.625Z,8.10
2019-05-22T23:02:12.622Z,8.00
2019-05-22T23:04:44.218Z,8.00
2019-05-22T23:07:16.253Z,8.00
2019-05-22T23:09:49.238Z,8.00
2019-05-22T23:12:21.472Z,8.00
2019-05-22T23:14:54.964Z,8.00
2019-05-22T23:17:26.070Z,8.10
2019-05-22T23:19:54.964Z,8.10
2019-05-22T23:22:24.882Z,8.10
2019-05-22T23:24:56.026Z,8.10
2019-05-22T23:27:28.976Z,8.10
2019-05-22T23:29:59.867Z,8.10
2019-05-22T23:32:31.603Z,8.10
2019-05-22T23:35:02.133Z,8.10
2019-05-22T23:37:33.329Z,8.00
2019-05-22T23:40:04.217Z,8.00
2019-05-22T23:42:38.038Z,8.10
2019-05-22T23:45:11.960Z,8.00
2019-05-22T23:47:50.847Z,8.00
2019-05-22T23:50:21.073Z,8.00
2019-05-22T23:52:50.732Z,8.00
2019-05-22T23:55:21.235Z,8.00
2019-05-22T23:57:51.577Z,8.00
